createdAt,value
2022-11-12T00:00:28.043Z,9.678149
2022-11-12T00:01:28.038Z,9.678169
2022-11-12T00:02:28.080Z,9.678131
2022-11-12T00:03:28.057Z,9.678158
2022-11-12T00:04:28.019Z,9.678176
2022-11-12T00:05:28.010Z,9.678139
2022-11-12T00:06:28.085Z,9.678117
2022-11-12T00:07:27.988Z,9.678168
2022-11-12T00:08:28.455Z,9.678158
2022-11-12T00:09:28.000Z,9.678160
2022-11-12T00:10:27.976Z,9.678174
2022-11-12T00:11:27.966Z,9.678174
2022-11-12T00:12:27.950Z,9.678195
2022-11-12T00:13:27.983Z,9.678177
2022-11-12T00:14:27.951Z,9.678154
2022-11-12T00:15:28.553Z,9.678144
2022-11-12T00:16:27.925Z,9.678119
2022-11-12T00:17:27.934Z,9.678127
2022-11-12T00:18:28.397Z,9.678118
2022-11-12T00:19:28.921Z,9.678132
2022-11-12T00:20:27.893Z,9.678130
2022-11-12T00:21:27.896Z,9.678164
2022-11-12T00:22:27.960Z,9.678113
2022-11-12T00:23:27.866Z,9.678164
2022-11-12T00:24:27.965Z,9.678156
2022-11-12T00:25:27.880Z,9.678136
2022-11-12T00:26:27.852Z,9.678151
2022-11-12T00:27:27.845Z,9.678143
2022-11-12T00:28:30.225Z,9.678139
2022-11-12T00:29:27.839Z,9.678171
2022-11-12T00:30:27.837Z,9.678153
2022-11-12T00:31:27.797Z,9.678125
2022-11-12T00:32:27.803Z,9.678112
2022-11-12T00:33:27.793Z,9.678100
2022-11-12T00:34:27.779Z,9.678091
2022-11-12T00:35:27.832Z,9.678063
2022-11-12T00:36:27.766Z,9.678082
2022-11-12T00:37:27.764Z,9.678078
2022-11-12T00:38:28.312Z,9.678145
2022-11-12T00:39:27.752Z,9.678071
2022-11-12T00:40:27.765Z,9.678149
2022-11-12T00:41:27.762Z,9.678039
2022-11-12T00:42:27.717Z,9.678018
2022-11-12T00:43:27.713Z,9.677992
2022-11-12T00:44:27.701Z,9.678041
2022-11-12T00:45:28.079Z,9.677957
2022-11-12T00:46:27.692Z,9.678000
2022-11-12T00:47:27.708Z,9.678052
2022-11-12T00:48:28.039Z,9.678023
2022-11-12T00:49:27.672Z,9.678041
2022-11-12T00:50:27.669Z,9.678139
2022-11-12T00:51:27.685Z,9.678142
2022-11-12T00:52:27.652Z,9.678101
2022-11-12T00:53:27.657Z,9.678158
2022-11-12T00:54:27.721Z,9.678153
2022-11-12T00:55:27.645Z,9.678172
2022-11-12T00:56:30.600Z,9.678133
2022-11-12T00:57:28.608Z,9.678094
2022-11-12T00:58:27.959Z,9.678138
2022-11-12T00:59:27.590Z,9.678108
2022-11-12T01:00:27.582Z,9.678102
2022-11-12T01:01:28.137Z,9.678126
2022-11-12T01:02:27.560Z,9.678080
2022-11-12T01:03:27.635Z,9.678072
2022-11-12T01:04:27.554Z,9.678117
2022-11-12T01:05:27.542Z,9.678143
2022-11-12T01:06:27.536Z,9.678130
2022-11-12T01:07:27.593Z,9.678100
2022-11-12T01:08:27.839Z,9.678067
2022-11-12T01:09:27.520Z,9.678067
2022-11-12T01:10:27.713Z,9.678065
2022-11-12T01:11:27.502Z,9.678097
2022-11-12T01:12:27.490Z,9.678130
2022-11-12T01:13:27.516Z,9.678053
2022-11-12T01:14:27.500Z,9.678080
2022-11-12T01:15:27.490Z,9.678057
2022-11-12T01:16:27.468Z,9.678111
2022-11-12T01:17:27.460Z,9.678096
2022-11-12T01:18:27.755Z,9.678081
2022-11-12T01:19:27.433Z,9.678093
2022-11-12T01:20:27.447Z,9.678146
2022-11-12T01:21:27.425Z,9.678096
2022-11-12T01:22:27.426Z,9.678099
2022-11-12T01:23:27.417Z,9.678121
2022-11-12T01:24:27.406Z,9.678096
2022-11-12T01:25:27.421Z,9.678115
2022-11-12T01:26:27.476Z,9.678123
2022-11-12T01:27:27.387Z,9.678137
2022-11-12T01:28:27.691Z,9.678090
2022-11-12T01:29:27.364Z,9.678106
2022-11-12T01:30:27.346Z,9.678204
2022-11-12T01:31:27.372Z,9.678093
2022-11-12T01:32:27.376Z,9.678088
2022-11-12T01:33:27.340Z,9.678104
2022-11-12T01:34:27.319Z,9.678182
2022-11-12T01:35:27.319Z,9.678153
2022-11-12T01:36:27.307Z,9.678131
2022-11-12T01:37:27.328Z,9.678185
2022-11-12T01:38:27.796Z,9.678166
2022-11-12T01:39:27.343Z,9.678338
2022-11-12T01:40:27.278Z,9.678234
2022-11-12T01:41:27.339Z,9.678159
2022-11-12T01:42:27.333Z,9.678226
2022-11-12T01:43:27.267Z,9.678215
2022-11-12T01:44:27.241Z,9.678164
2022-11-12T01:45:27.244Z,9.678226
2022-11-12T01:46:27.245Z,9.678238
2022-11-12T01:47:27.224Z,9.678267
2022-11-12T01:48:27.496Z,9.678196
2022-11-12T01:49:27.212Z,9.678166
2022-11-12T01:50:27.196Z,9.678160
2022-11-12T01:51:27.206Z,9.678141
2022-11-12T01:52:27.182Z,9.678173
2022-11-12T01:53:27.177Z,9.678151
2022-11-12T01:54:27.172Z,9.678146
2022-11-12T01:55:27.177Z,9.678147
2022-11-12T01:56:27.161Z,9.678172
2022-11-12T01:57:31.961Z,9.678134
2022-11-12T01:58:28.556Z,9.678144
2022-11-12T01:59:27.127Z,9.678121
2022-11-12T02:00:27.128Z,9.678134
2022-11-12T02:01:27.177Z,9.678123
2022-11-12T02:02:27.123Z,9.678118
2022-11-12T02:03:27.101Z,9.678127
2022-11-12T02:04:27.096Z,9.678118
2022-11-12T02:05:27.081Z,9.678170
2022-11-12T02:06:27.072Z,9.678187
2022-11-12T02:07:27.099Z,9.678159
2022-11-12T02:08:27.431Z,9.678147
2022-11-12T02:09:27.050Z,9.678125
2022-11-12T02:10:27.051Z,9.678116
2022-11-12T02:11:27.029Z,9.678106
2022-11-12T02:12:27.056Z,9.678165
2022-11-12T02:13:27.029Z,9.678204
2022-11-12T02:14:27.108Z,9.678203
2022-11-12T02:15:27.002Z,9.678161
2022-11-12T02:16:26.989Z,9.678142
2022-11-12T02:17:27.009Z,9.678102
2022-11-12T02:18:27.260Z,9.678098
2022-11-12T02:19:26.971Z,9.678078
2022-11-12T02:20:26.967Z,9.678169
2022-11-12T02:21:26.966Z,9.678196
2022-11-12T02:22:26.990Z,9.678131
2022-11-12T02:23:26.937Z,9.678141
2022-11-12T02:24:26.934Z,9.678154
2022-11-12T02:25:26.927Z,9.678147
2022-11-12T02:26:26.915Z,9.678124
2022-11-12T02:27:26.926Z,9.678121
2022-11-12T02:28:27.187Z,9.678130
2022-11-12T02:29:26.895Z,9.678110
2022-11-12T02:30:27.002Z,9.678080
2022-11-12T02:31:26.878Z,9.678139
2022-11-12T02:32:26.868Z,9.678152
2022-11-12T02:33:26.892Z,9.678161
2022-11-12T02:34:26.874Z,9.678151
2022-11-12T02:35:26.874Z,9.678140
2022-11-12T02:36:26.835Z,9.678107
2022-11-12T02:37:26.833Z,9.678151
2022-11-12T02:38:27.106Z,9.678131
2022-11-12T02:39:26.816Z,9.678089
2022-11-12T02:40:26.815Z,9.678090
2022-11-12T02:41:26.799Z,9.678107
2022-11-12T02:42:26.809Z,9.678119
2022-11-12T02:43:26.792Z,9.678065
2022-11-12T02:44:26.805Z,9.678071
2022-11-12T02:45:26.771Z,9.678032
2022-11-12T02:46:26.841Z,9.678090
2022-11-12T02:47:26.768Z,9.678085
2022-11-12T02:48:26.999Z,9.678061
2022-11-12T02:49:26.750Z,9.678088
2022-11-12T02:50:26.719Z,9.678073
2022-11-12T02:51:26.716Z,9.678070
2022-11-12T02:52:26.711Z,9.678081
2022-11-12T02:53:26.710Z,9.678079
2022-11-12T02:54:26.698Z,9.678102
2022-11-12T02:55:26.703Z,9.678081
2022-11-12T02:56:26.686Z,9.678120
2022-11-12T02:57:26.655Z,9.678094
2022-11-12T02:58:26.991Z,9.678110
2022-11-12T02:59:26.638Z,9.678124
2022-11-12T03:00:26.671Z,9.678091
2022-11-12T03:01:26.679Z,9.678128
2022-11-12T03:02:26.705Z,9.678114
2022-11-12T03:03:26.650Z,9.677999
2022-11-12T03:04:26.608Z,9.678118
2022-11-12T03:05:26.602Z,9.678088
2022-11-12T03:06:26.608Z,9.678052
2022-11-12T03:07:26.605Z,9.678123
2022-11-12T03:08:26.880Z,9.678124
2022-11-12T03:09:26.605Z,9.678107
2022-11-12T03:10:26.556Z,9.678129
2022-11-12T03:11:26.556Z,9.678132
2022-11-12T03:12:26.537Z,9.678134
2022-11-12T03:13:26.535Z,9.678110
2022-11-12T03:14:26.531Z,9.678111
2022-11-12T03:15:26.534Z,9.678126
2022-11-12T03:16:26.511Z,9.678064
2022-11-12T03:17:26.642Z,9.678077
2022-11-12T03:18:26.885Z,9.678157
2022-11-12T03:19:26.499Z,9.678167
2022-11-12T03:20:26.523Z,9.678192
2022-11-12T03:21:26.520Z,9.678164
2022-11-12T03:22:26.498Z,9.678174
2022-11-12T03:23:26.486Z,9.678069
2022-11-12T03:24:26.444Z,9.678067
2022-11-12T03:25:26.447Z,9.678073
2022-11-12T03:26:27.344Z,9.678100
2022-11-12T03:27:26.435Z,9.678085
2022-11-12T03:28:26.671Z,9.678130
2022-11-12T03:29:26.408Z,9.678095
2022-11-12T03:30:26.397Z,9.678090
2022-11-12T03:31:26.398Z,9.678120
2022-11-12T03:32:26.445Z,9.678116
2022-11-12T03:33:26.383Z,9.678119
2022-11-12T03:34:26.478Z,9.678119
2022-11-12T03:35:26.364Z,9.678102
2022-11-12T03:36:26.362Z,9.678095
2022-11-12T03:37:26.358Z,9.678059
2022-11-12T03:38:26.680Z,9.678076
2022-11-12T03:39:26.345Z,9.678060
2022-11-12T03:40:26.331Z,9.678088
2022-11-12T03:41:26.316Z,9.678073
2022-11-12T03:42:26.313Z,9.678066
2022-11-12T03:43:26.292Z,9.678095
2022-11-12T03:44:26.350Z,9.678028
2022-11-12T03:45:26.297Z,9.678078
2022-11-12T03:46:26.275Z,9.678113
2022-11-12T03:47:26.271Z,9.678108
2022-11-12T03:48:26.582Z,9.678114
2022-11-12T03:49:26.296Z,9.678126
2022-11-12T03:50:26.330Z,9.678134
2022-11-12T03:51:26.246Z,9.678111
2022-11-12T03:52:26.230Z,9.678113
2022-11-12T03:53:26.228Z,9.678131
2022-11-12T03:54:26.216Z,9.678144
2022-11-12T03:55:26.235Z,9.678115
2022-11-12T03:56:26.203Z,9.678069
2022-11-12T03:57:26.233Z,9.678173
2022-11-12T03:58:26.454Z,9.678153
2022-11-12T03:59:26.208Z,9.678151
2022-11-12T04:00:26.175Z,9.678134
2022-11-12T04:01:26.216Z,9.678105
2022-11-12T04:02:26.158Z,9.678157
2022-11-12T04:03:26.145Z,9.678179
2022-11-12T04:04:26.136Z,9.678180
2022-11-12T04:05:26.150Z,9.678115
2022-11-12T04:06:26.244Z,9.678166
2022-11-12T04:07:26.119Z,9.678138
2022-11-12T04:08:26.605Z,9.678164
2022-11-12T04:09:26.095Z,9.678197
2022-11-12T04:10:26.089Z,9.678209
2022-11-12T04:11:26.147Z,9.678209
2022-11-12T04:12:26.071Z,9.678205
2022-11-12T04:13:26.076Z,9.678187
2022-11-12T04:14:26.069Z,9.678257
2022-11-12T04:15:26.051Z,9.678274
2022-11-12T04:16:26.071Z,9.678285
2022-11-12T04:17:26.037Z,9.678289
2022-11-12T04:18:26.222Z,9.678232
2022-11-12T04:19:26.017Z,9.678076
2022-11-12T04:20:26.020Z,9.678127
2022-11-12T04:21:26.011Z,9.678200
2022-11-12T04:22:26.097Z,9.678181
2022-11-12T04:23:25.986Z,9.678204
2022-11-12T04:24:26.018Z,9.678203
2022-11-12T04:25:26.007Z,9.678181
2022-11-12T04:26:25.976Z,9.678175
2022-11-12T04:27:25.992Z,9.678174
2022-11-12T04:28:26.362Z,9.678152
2022-11-12T04:29:25.946Z,9.678148
2022-11-12T04:30:25.940Z,9.678116
2022-11-12T04:31:25.980Z,9.678181
2022-11-12T04:32:25.923Z,9.678185
2022-11-12T04:33:25.930Z,9.678143
2022-11-12T04:34:25.929Z,9.678124
2022-11-12T04:35:25.910Z,9.678140
2022-11-12T04:36:25.923Z,9.678132
2022-11-12T04:37:25.889Z,9.678139
2022-11-12T04:38:26.422Z,9.678169
2022-11-12T04:39:25.868Z,9.678148
2022-11-12T04:40:25.888Z,9.678140
2022-11-12T04:41:25.854Z,9.678132
2022-11-12T04:42:25.878Z,9.678164
2022-11-12T04:43:25.837Z,9.678168
2022-11-12T04:44:25.836Z,9.678109
2022-11-12T04:45:25.833Z,9.678090
2022-11-12T04:46:25.824Z,9.678061
2022-11-12T04:47:25.812Z,9.678036
2022-11-12T04:48:26.234Z,9.678142
2022-11-12T04:49:25.831Z,9.678089
2022-11-12T04:50:25.828Z,9.678116
2022-11-12T04:51:25.771Z,9.678134
2022-11-12T04:52:25.762Z,9.678147
2022-11-12T04:53:25.767Z,9.678123
2022-11-12T04:54:33.336Z,9.678113
2022-11-12T04:55:25.734Z,9.678217
2022-11-12T04:56:25.769Z,9.678246
2022-11-12T04:57:25.720Z,9.678177
2022-11-12T04:58:26.150Z,9.678145
2022-11-12T04:59:25.715Z,9.678085
2022-11-12T05:00:25.714Z,9.678118
2022-11-12T05:01:25.744Z,9.678162
2022-11-12T05:02:25.682Z,9.678144
2022-11-12T05:03:25.703Z,9.678221
2022-11-12T05:04:25.668Z,9.678187
2022-11-12T05:05:28.562Z,9.678164
2022-11-12T05:06:26.668Z,9.678164
2022-11-12T05:07:25.646Z,9.678167
2022-11-12T05:08:26.069Z,9.678194
2022-11-12T05:09:25.636Z,9.678234
2022-11-12T05:10:25.698Z,9.678180
2022-11-12T05:11:25.638Z,9.678263
2022-11-12T05:12:25.607Z,9.678107
2022-11-12T05:13:25.596Z,9.678132
2022-11-12T05:14:25.604Z,9.678033
2022-11-12T05:15:25.582Z,9.678093
2022-11-12T05:16:25.597Z,9.678221
2022-11-12T05:17:25.557Z,9.678063
2022-11-12T05:18:25.919Z,9.678025
2022-11-12T05:19:25.570Z,9.678114
2022-11-12T05:20:25.544Z,9.678135
2022-11-12T05:21:25.571Z,9.678190
2022-11-12T05:22:42.520Z,9.678119
2022-11-12T05:23:26.521Z,9.678140
2022-11-12T05:24:41.168Z,9.678129
2022-11-12T05:25:26.532Z,9.678132
2022-11-12T05:26:25.606Z,9.678112
2022-11-12T05:27:25.495Z,9.678143
2022-11-12T05:28:25.817Z,9.678108
2022-11-12T05:29:25.479Z,9.678066
2022-11-12T05:30:25.466Z,9.678127
2022-11-12T05:31:25.452Z,9.678113
2022-11-12T05:32:25.477Z,9.678148
2022-11-12T05:33:25.464Z,9.678118
2022-11-12T05:34:25.425Z,9.678113
2022-11-12T05:35:25.422Z,9.678142
2022-11-12T05:36:25.418Z,9.678136
2022-11-12T05:37:25.419Z,9.678164
2022-11-12T05:38:25.866Z,9.678214
2022-11-12T05:39:25.429Z,9.678112
2022-11-12T05:40:25.393Z,9.678198
2022-11-12T05:41:25.382Z,9.678182
2022-11-12T05:42:25.513Z,9.678237
2022-11-12T05:43:25.370Z,9.678155
2022-11-12T05:44:25.371Z,9.678124
2022-11-12T05:45:25.361Z,9.678141
2022-11-12T05:46:25.335Z,9.678184
2022-11-12T05:47:25.335Z,9.678144
2022-11-12T05:48:25.544Z,9.678154
2022-11-12T05:49:25.310Z,9.678191
2022-11-12T05:50:28.255Z,9.678203
2022-11-12T05:51:26.319Z,9.678152
2022-11-12T05:52:25.309Z,9.678139
2022-11-12T05:53:25.290Z,9.678107
2022-11-12T05:54:25.281Z,9.678071
2022-11-12T05:55:25.271Z,9.678089
2022-11-12T05:56:25.270Z,9.678103
2022-11-12T05:57:25.252Z,9.678109
2022-11-12T05:58:25.654Z,9.678090
2022-11-12T05:59:25.234Z,9.678143
2022-11-12T06:00:25.232Z,9.678141
2022-11-12T06:01:25.221Z,9.678148
2022-11-12T06:02:25.262Z,9.678124
2022-11-12T06:03:25.195Z,9.678154
2022-11-12T06:04:25.181Z,9.678143
2022-11-12T06:05:25.186Z,9.678093
2022-11-12T06:06:25.192Z,9.678120
2022-11-12T06:07:25.185Z,9.678091
2022-11-12T06:08:25.612Z,9.678068
2022-11-12T06:09:25.155Z,9.678100
2022-11-12T06:10:25.169Z,9.678124
2022-11-12T06:11:25.132Z,9.678095
2022-11-12T06:12:25.120Z,9.678104
2022-11-12T06:13:25.119Z,9.678141
2022-11-12T06:14:25.239Z,9.678170
2022-11-12T06:15:25.096Z,9.678123
2022-11-12T06:16:25.112Z,9.678128
2022-11-12T06:17:25.095Z,9.678125
2022-11-12T06:18:25.573Z,9.678152
2022-11-12T06:19:25.239Z,9.678151
2022-11-12T06:20:25.064Z,9.678190
2022-11-12T06:21:25.057Z,9.678125
2022-11-12T06:22:25.070Z,9.678161
2022-11-12T06:23:25.039Z,9.678140
2022-11-12T06:24:25.054Z,9.678156
2022-11-12T06:25:25.149Z,9.678149
2022-11-12T06:26:25.014Z,9.678180
2022-11-12T06:27:25.009Z,9.678165
2022-11-12T06:28:25.311Z,9.678126
2022-11-12T06:29:24.993Z,9.678116
2022-11-12T06:30:25.908Z,9.678151
2022-11-12T06:31:24.982Z,9.678164
2022-11-12T06:32:24.962Z,9.678174
2022-11-12T06:33:25.016Z,9.678153
2022-11-12T06:34:24.982Z,9.678124
2022-11-12T06:35:24.943Z,9.678123
2022-11-12T06:36:25.056Z,9.678177
2022-11-12T06:37:24.932Z,9.678094
2022-11-12T06:38:25.213Z,9.678144
2022-11-12T06:39:24.927Z,9.678158
2022-11-12T06:40:25.208Z,9.678116
2022-11-12T06:41:24.915Z,9.678074
2022-11-12T06:42:25.209Z,9.678102
2022-11-12T06:43:24.870Z,9.678142
2022-11-12T06:44:24.944Z,9.678136
2022-11-12T06:45:24.855Z,9.678131
2022-11-12T06:46:24.931Z,9.678103
2022-11-12T06:47:25.122Z,9.678111
2022-11-12T06:48:25.126Z,9.678125
2022-11-12T06:49:25.809Z,9.678090
2022-11-12T06:50:25.815Z,9.678106
2022-11-12T06:51:24.839Z,9.678135
2022-11-12T06:52:24.807Z,9.678167
2022-11-12T06:53:24.971Z,9.678140
2022-11-12T06:54:24.956Z,9.678115
2022-11-12T06:55:24.813Z,9.678108
2022-11-12T06:56:24.887Z,9.678066
2022-11-12T06:57:24.771Z,9.678090
2022-11-12T06:58:25.605Z,9.678090
2022-11-12T06:59:24.749Z,9.678101
2022-11-12T07:00:24.734Z,9.678102
2022-11-12T07:01:24.770Z,9.678137
2022-11-12T07:02:25.054Z,9.678071
2022-11-12T07:03:24.712Z,9.678034
2022-11-12T07:04:24.714Z,9.678141
2022-11-12T07:05:24.722Z,9.678122
2022-11-12T07:06:24.723Z,9.678168
2022-11-12T07:07:25.110Z,9.678143
2022-11-12T07:08:24.860Z,9.678142
2022-11-12T07:09:24.711Z,9.678120
2022-11-12T07:10:24.785Z,9.678128
2022-11-12T07:11:24.665Z,9.678116
2022-11-12T07:12:24.675Z,9.678153
2022-11-12T07:13:24.637Z,9.678102
2022-11-12T07:14:25.335Z,9.678086
2022-11-12T07:15:24.629Z,9.678165
2022-11-12T07:16:24.842Z,9.678080
2022-11-12T07:17:24.603Z,9.678169
2022-11-12T07:18:25.134Z,9.678194
2022-11-12T07:19:24.655Z,9.678176
2022-11-12T07:20:25.646Z,9.678149
2022-11-12T07:21:25.316Z,9.678131
2022-11-12T07:22:24.598Z,9.678124
2022-11-12T07:23:24.572Z,9.678144
2022-11-12T07:24:27.666Z,9.678096
2022-11-12T07:25:24.568Z,9.678150
2022-11-12T07:26:24.587Z,9.678167
2022-11-12T07:27:24.535Z,9.678193
2022-11-12T07:28:24.900Z,9.678117
2022-11-12T07:29:42.686Z,9.678119
2022-11-12T07:30:26.039Z,9.678116
2022-11-12T07:31:24.505Z,9.678069
2022-11-12T07:32:24.483Z,9.678073
2022-11-12T07:33:24.513Z,9.678092
2022-11-12T07:34:24.635Z,9.678153
2022-11-12T07:35:24.476Z,9.678080
2022-11-12T07:36:24.483Z,9.678150
2022-11-12T07:37:24.445Z,9.678168
2022-11-12T07:38:24.721Z,9.678120
2022-11-12T07:39:24.424Z,9.678080
2022-11-12T07:40:24.431Z,9.678164
2022-11-12T07:41:24.413Z,9.678133
2022-11-12T07:42:24.597Z,9.678200
2022-11-12T07:43:24.399Z,9.678161
2022-11-12T07:44:24.397Z,9.678180
2022-11-12T07:45:24.401Z,9.678168
2022-11-12T07:46:24.456Z,9.678121
2022-11-12T07:47:24.414Z,9.678139
2022-11-12T07:48:24.633Z,9.678133
2022-11-12T07:49:24.358Z,9.678181
2022-11-12T07:50:24.435Z,9.678155
2022-11-12T07:51:25.154Z,9.678107
2022-11-12T07:52:24.675Z,9.678112
2022-11-12T07:53:24.341Z,9.678123
2022-11-12T07:54:24.323Z,9.678060
2022-11-12T07:55:24.310Z,9.678124
2022-11-12T07:56:24.341Z,9.678115
2022-11-12T07:57:24.307Z,9.678130
2022-11-12T07:58:24.530Z,9.678134
2022-11-12T07:59:24.294Z,9.678144
2022-11-12T08:00:24.277Z,9.678125
2022-11-12T08:01:24.351Z,9.678056
2022-11-12T08:02:24.258Z,9.678133
2022-11-12T08:03:24.316Z,9.678101
2022-11-12T08:04:24.241Z,9.678062
2022-11-12T08:05:24.239Z,9.678096
2022-11-12T08:06:24.326Z,9.678130
2022-11-12T08:07:24.336Z,9.678093
2022-11-12T08:08:24.601Z,9.678132
2022-11-12T08:09:24.226Z,9.678160
2022-11-12T08:10:24.195Z,9.678156
2022-11-12T08:11:24.213Z,9.678177
2022-11-12T08:12:24.202Z,9.678102
2022-11-12T08:13:24.174Z,9.678111
2022-11-12T08:14:24.193Z,9.678150
2022-11-12T08:15:24.183Z,9.678160
2022-11-12T08:16:24.142Z,9.678149
2022-11-12T08:17:24.126Z,9.678114
2022-11-12T08:18:24.387Z,9.678107
2022-11-12T08:19:24.162Z,9.678073
2022-11-12T08:20:24.299Z,9.678083
2022-11-12T08:21:24.100Z,9.678079
2022-11-12T08:22:24.170Z,9.678127
2022-11-12T08:23:24.116Z,9.678144
2022-11-12T08:24:24.105Z,9.678127
2022-11-12T08:25:24.078Z,9.678071
2022-11-12T08:26:24.101Z,9.678159
2022-11-12T08:27:24.076Z,9.678160
2022-11-12T08:28:26.791Z,9.678137
2022-11-12T08:29:25.629Z,9.678064
2022-11-12T08:30:31.694Z,9.678043
2022-11-12T08:31:25.774Z,9.678095
2022-11-12T08:32:25.671Z,9.678150
2022-11-12T08:33:24.014Z,9.678144
2022-11-12T08:34:24.046Z,9.678134
2022-11-12T08:35:24.019Z,9.678076
2022-11-12T08:36:24.053Z,9.678082
2022-11-12T08:37:23.969Z,9.678145
2022-11-12T08:38:24.336Z,9.678160
2022-11-12T08:39:23.956Z,9.678167
2022-11-12T08:40:23.965Z,9.678194
2022-11-12T08:41:23.992Z,9.678167
2022-11-12T08:42:23.942Z,9.678108
2022-11-12T08:43:23.966Z,9.678093
2022-11-12T08:44:23.924Z,9.678134
2022-11-12T08:45:23.922Z,9.678163
2022-11-12T08:46:23.906Z,9.678094
2022-11-12T08:47:23.927Z,9.678069
2022-11-12T08:48:24.044Z,9.678091
2022-11-12T08:49:23.899Z,9.678070
2022-11-12T08:50:23.865Z,9.678143
2022-11-12T08:51:23.868Z,9.678137
2022-11-12T08:52:23.852Z,9.678173
2022-11-12T08:53:23.862Z,9.678178
2022-11-12T08:54:23.954Z,9.678167
2022-11-12T08:55:24.663Z,9.678100
2022-11-12T08:56:23.833Z,9.678100
2022-11-12T08:57:23.833Z,9.678105
2022-11-12T08:58:24.148Z,9.678110
2022-11-12T08:59:23.814Z,9.678123
2022-11-12T09:00:23.848Z,9.678028
2022-11-12T09:01:23.844Z,9.678143
2022-11-12T09:02:23.786Z,9.678095
2022-11-12T09:03:23.782Z,9.678109
2022-11-12T09:04:23.849Z,9.678098
2022-11-12T09:05:23.837Z,9.678102
2022-11-12T09:06:23.794Z,9.678040
2022-11-12T09:07:50.031Z,9.678121
2022-11-12T09:08:25.081Z,9.678130
2022-11-12T09:09:23.756Z,9.678148
2022-11-12T09:10:23.895Z,9.678180
2022-11-12T09:11:23.728Z,9.678155
2022-11-12T09:12:23.711Z,9.678139
2022-11-12T09:13:23.761Z,9.678070
2022-11-12T09:14:23.773Z,9.678033
2022-11-12T09:15:37.083Z,9.678019
2022-11-12T09:16:24.675Z,9.678074
2022-11-12T09:17:23.673Z,9.678119
2022-11-12T09:18:23.918Z,9.678121
2022-11-12T09:19:23.686Z,9.678112
2022-11-12T09:20:23.744Z,9.678125
2022-11-12T09:21:23.634Z,9.678044
2022-11-12T09:22:23.667Z,9.678061
2022-11-12T09:23:23.618Z,9.678095
2022-11-12T09:24:23.674Z,9.678050
2022-11-12T09:25:23.630Z,9.678037
2022-11-12T09:26:23.699Z,9.678045
2022-11-12T09:27:23.594Z,9.678053
2022-11-12T09:28:23.816Z,9.678063
2022-11-12T09:29:23.609Z,9.678052
2022-11-12T09:30:23.613Z,9.678086
2022-11-12T09:31:23.600Z,9.678062
2022-11-12T09:32:23.553Z,9.678120
2022-11-12T09:33:23.545Z,9.678102
2022-11-12T09:34:23.560Z,9.678099
2022-11-12T09:35:23.562Z,9.678035
2022-11-12T09:36:23.615Z,9.678078
2022-11-12T09:37:23.502Z,9.678029
2022-11-12T09:38:23.585Z,9.678087
2022-11-12T09:39:23.567Z,9.678063
2022-11-12T09:40:23.504Z,9.678091
2022-11-12T09:41:23.507Z,9.678110
2022-11-12T09:42:23.609Z,9.678088
2022-11-12T09:43:23.495Z,9.678074
2022-11-12T09:44:23.498Z,9.678099
2022-11-12T09:45:23.493Z,9.678113
2022-11-12T09:46:28.016Z,9.678139
2022-11-12T09:47:24.479Z,9.678130
2022-11-12T09:48:23.574Z,9.678157
2022-11-12T09:49:23.439Z,9.678097
2022-11-12T09:50:23.406Z,9.678089
2022-11-12T09:51:23.399Z,9.678118
2022-11-12T09:52:23.397Z,9.678120
2022-11-12T09:53:23.380Z,9.678128
2022-11-12T09:54:23.427Z,9.678141
2022-11-12T09:55:23.689Z,9.678119
2022-11-12T09:56:23.377Z,9.678119
2022-11-12T09:57:23.356Z,9.678070
2022-11-12T09:58:23.647Z,9.678098
2022-11-12T09:59:23.356Z,9.678084
2022-11-12T10:00:23.350Z,9.678092
2022-11-12T10:01:23.441Z,9.678090
2022-11-12T10:02:23.315Z,9.678083
2022-11-12T10:03:23.302Z,9.678104
2022-11-12T10:04:23.299Z,9.678104
2022-11-12T10:05:23.286Z,9.678097
2022-11-12T10:06:23.366Z,9.678102
2022-11-12T10:07:23.301Z,9.678095
2022-11-12T10:08:23.337Z,9.678097
2022-11-12T10:09:23.262Z,9.678106
2022-11-12T10:10:23.249Z,9.678129
2022-11-12T10:11:23.262Z,9.678120
2022-11-12T10:12:23.240Z,9.678107
2022-11-12T10:13:23.254Z,9.678132
2022-11-12T10:14:23.293Z,9.678103
2022-11-12T10:15:23.214Z,9.678098
2022-11-12T10:16:23.208Z,9.678089
2022-11-12T10:17:23.251Z,9.678088
2022-11-12T10:18:23.263Z,9.678110
2022-11-12T10:19:23.216Z,9.678127
2022-11-12T10:20:23.168Z,9.678144
2022-11-12T10:21:23.171Z,9.678127
2022-11-12T10:22:23.150Z,9.678165
2022-11-12T10:23:23.170Z,9.678195
2022-11-12T10:24:23.195Z,9.678173
2022-11-12T10:25:23.118Z,9.678156
2022-11-12T10:26:23.192Z,9.678118
2022-11-12T10:27:23.128Z,9.678133
2022-11-12T10:28:23.286Z,9.678164
2022-11-12T10:29:23.141Z,9.678122
2022-11-12T10:30:23.168Z,9.678179
2022-11-12T10:31:23.070Z,9.678098
2022-11-12T10:32:23.068Z,9.678101
2022-11-12T10:33:23.054Z,9.678156
2022-11-12T10:34:23.050Z,9.678117
2022-11-12T10:35:23.113Z,9.678128
2022-11-12T10:36:23.037Z,9.678232
2022-11-12T10:37:23.060Z,9.678161
2022-11-12T10:38:23.015Z,9.678170
2022-11-12T10:39:23.011Z,9.678110
2022-11-12T10:40:23.027Z,9.678131
2022-11-12T10:41:23.016Z,9.678082
2022-11-12T10:42:22.987Z,9.678136
2022-11-12T10:43:22.986Z,9.678120
2022-11-12T10:44:23.001Z,9.678151
2022-11-12T10:45:22.980Z,9.678115
2022-11-12T10:46:23.028Z,9.678091
2022-11-12T10:47:22.952Z,9.678089
2022-11-12T10:48:26.981Z,9.678196
2022-11-12T10:49:22.920Z,9.678154
2022-11-12T10:50:22.918Z,9.678100
2022-11-12T10:51:22.905Z,9.678103
2022-11-12T10:52:22.944Z,9.678158
2022-11-12T10:53:22.900Z,9.678137
2022-11-12T10:54:22.893Z,9.678164
2022-11-12T10:55:22.874Z,9.678153
2022-11-12T10:56:22.870Z,9.678149
2022-11-12T10:57:22.886Z,9.678147
2022-11-12T10:58:22.850Z,9.678132
2022-11-12T10:59:22.851Z,9.678098
2022-11-12T11:00:30.338Z,9.678111
2022-11-12T11:01:22.854Z,9.678130
2022-11-12T11:02:22.924Z,9.678129
2022-11-12T11:03:22.824Z,9.678087
2022-11-12T11:04:22.802Z,9.678093
2022-11-12T11:05:22.781Z,9.678106
2022-11-12T11:06:22.783Z,9.678122
2022-11-12T11:07:22.785Z,9.678097
2022-11-12T11:08:22.793Z,9.678053
2022-11-12T11:09:22.760Z,9.678132
2022-11-12T11:10:22.742Z,9.678082
2022-11-12T11:11:22.747Z,9.678102
2022-11-12T11:12:22.755Z,9.678103
2022-11-12T11:13:22.717Z,9.678040
2022-11-12T11:14:22.718Z,9.678111
2022-11-12T11:15:22.695Z,9.678113
2022-11-12T11:16:22.708Z,9.678061
2022-11-12T11:17:22.690Z,9.678086
2022-11-12T11:18:22.784Z,9.678092
2022-11-12T11:19:22.680Z,9.678063
2022-11-12T11:20:22.674Z,9.678053
2022-11-12T11:21:22.654Z,9.678084
2022-11-12T11:22:22.649Z,9.678059
2022-11-12T11:23:22.663Z,9.678093
2022-11-12T11:24:22.724Z,9.678043
2022-11-12T11:25:22.641Z,9.678069
2022-11-12T11:26:22.604Z,9.678081
2022-11-12T11:27:22.601Z,9.678087
2022-11-12T11:28:22.619Z,9.678075
2022-11-12T11:29:22.605Z,9.678102
2022-11-12T11:30:22.595Z,9.678096
2022-11-12T11:31:22.773Z,9.678045
2022-11-12T11:32:22.584Z,9.678041
2022-11-12T11:33:22.552Z,9.678025
2022-11-12T11:34:22.629Z,9.678041
2022-11-12T11:35:22.536Z,9.678069
2022-11-12T11:36:22.527Z,9.678077
2022-11-12T11:37:22.558Z,9.678075
2022-11-12T11:38:22.528Z,9.678077
2022-11-12T11:39:22.489Z,9.678060
2022-11-12T11:40:22.485Z,9.678083
2022-11-12T11:41:22.482Z,9.678057
2022-11-12T11:42:22.484Z,9.678101
2022-11-12T11:43:22.473Z,9.678108
2022-11-12T11:44:22.481Z,9.678111